Terminal Aerodrome Forecast
Issued by NWS Billings, MT

Home | Current Version | Previous Version | Text Only | Print | Product List | Glossary Off
Versions: 1 2 3 4 5 6 7 8 9 10 11 12 13 14 15 16 17 18 19 20 21 22 23 24 25 26 27 28

000
FTUS45 KBYZ 221129
TAFMLS
TAF
KMLS 221129Z 2212/2312 31003KT P6SM VCSH OVC009
     FM221800 09008KT P6SM VCSH SCT030 BKN050
     FM222100 08010KT P6SM -RA SCT015 OVC020
     FM230600 06015KT 6SM -RA SCT008 BKN010 OVC020=

USA.gov is the U.S. government's official web portal to all federal, state and local government web resources and services.